Abeille Honfleur 19 — FV6095 — position and weather

sailwx.info

Track history (hours):
 
Tides and Currents Weather Stations Pressure Air Temp Water Temp Dewpoint Dewpoint Depression Visibility Wind Speed Wind Dir Waves Ship Positions

Abeille Honfleur 19

Last reported at 2015-Jul-02 02:31 UTC. Time now 2015-Jul-02 18:14 UTC.
Position N 47°18' W 002°09'.

Length 30 m.

Type: Tug. MMSI: 227005280.

Date/timePositionNaut miles runAvg speedWind from/ knotsBaromVisibWave heightAir tempDewpointWater temp
2015-Jul-02 02:31N 47°18' W 002°09'3 2.6
2015-Jul-02 01:33N 47°16' W 002°12'0 0.0
2015-Jul-02 00:27N 47°16' W 002°12'0 0.0
2015-Jul-01 23:30N 47°16' W 002°12'0 0.0
2015-Jul-01 22:33N 47°16' W 002°12'0 0.0
2015-Jul-01 19:24N 47°16' W 002°12'0 0.0
2015-Jul-01 17:33N 47°16' W 002°12'0 0.0
2015-Jul-01 16:06N 47°16' W 002°12'0 0.0
2015-Jul-01 13:30N 47°16' W 002°12'0 0.0
2015-Jul-01 06:12N 47°16' W 002°12'0 0.0
2015-Jul-01 05:30N 47°16' W 002°12'0 0.0
2015-Jul-01 04:33N 47°16' W 002°12'0 0.0
2015-Jul-01 03:33N 47°16' W 002°12'0 0.0
2015-Jul-01 01:32N 47°16' W 002°12'0 0.0
2015-Jul-01 00:09N 47°16' W 002°12'0 0.0
2015-Jun-30 23:32N 47°16' W 002°12'0 0.0
2015-Jun-30 22:27N 47°16' W 002°12'0 0.0
2015-Jun-30 20:06N 47°16' W 002°12'0 0.0
2015-Jun-30 07:14N 47°16' W 002°12'3 4.1
2015-Jun-30 06:33N 47°18' W 002°09'0 0.0
2015-Jun-30 05:30N 47°18' W 002°09'0 0.0
2015-Jun-30 04:33N 47°18' W 002°09'0 0.0
2015-Jun-30 03:33N 47°18' W 002°09'0 0.0
2015-Jun-30 02:33N 47°18' W 002°09'0 0.0
2015-Jun-30 01:33N 47°18' W 002°09'0 0.0
2015-Jun-30 00:24N 47°18' W 002°09'0 0.0
2015-Jun-29 23:33N 47°18' W 002°09'0 0.0
2015-Jun-29 22:27N 47°18' W 002°09'0 0.0
2015-Jun-29 21:27N 47°18' W 002°09'0 0.0
2015-Jun-29 20:33N 47°18' W 002°09'0 0.0
2015-Jun-29 19:30N 47°18' W 002°09'0 0.0
2015-Jun-29 18:27N 47°18' W 002°09'0 0.0
2015-Jun-29 13:27N 47°18' W 002°09'0 0.0
2015-Jun-29 12:27N 47°18' W 002°09'0 0.0
2015-Jun-29 11:33N 47°18' W 002°09'0 0.0
2015-Jun-29 10:33N 47°18' W 002°09'0 0.0
2015-Jun-29 09:33N 47°18' W 002°09'0 0.0
2015-Jun-29 08:33N 47°18' W 002°09'0 0.0
2015-Jun-29 07:30N 47°18' W 002°09'3 2.6
2015-Jun-29 06:25N 47°16' W 002°12'0 0.0
2015-Jun-29 05:31N 47°16' W 002°12'0 0.0
2015-Jun-29 04:31N 47°16' W 002°12'0 0.0
2015-Jun-29 03:25N 47°16' W 002°12'0 0.0
2015-Jun-29 02:25N 47°16' W 002°12'0 0.0
2015-Jun-29 01:31N 47°16' W 002°12'0 0.0
2015-Jun-29 00:13N 47°16' W 002°12'0 0.0
2015-Jun-28 23:19N 47°16' W 002°12'0 0.0
2015-Jun-28 22:19N 47°16' W 002°12'0 0.0
2015-Jun-28 21:19N 47°16' W 002°12'0 0.0
2015-Jun-28 09:28N 47°16' W 002°12'0 0.0
2015-Jun-28 08:22N 47°16' W 002°12'0 0.0
2015-Jun-28 07:22N 47°16' W 002°12'0 0.0
2015-Jun-28 06:22N 47°16' W 002°12'0 0.0
2015-Jun-28 05:31N 47°16' W 002°12'0 0.0
2015-Jun-28 04:31N 47°16' W 002°12'0 0.0
2015-Jun-28 03:25N 47°16' W 002°12'0 0.0
2015-Jun-28 02:31N 47°16' W 002°12'0 0.0
2015-Jun-28 01:31N 47°16' W 002°12'0 0.0
2015-Jun-28 00:31N 47°16' W 002°12'0 0.0
2015-Jun-27 23:31N 47°16' W 002°12'0 0.0
2015-Jun-27 22:31N 47°16' W 002°12'0 0.0
2015-Jun-27 21:25N 47°16' W 002°12'0 0.0
2015-Jun-27 20:28N 47°16' W 002°12'0 0.0
2015-Jun-27 19:16N 47°16' W 002°12'1 0.1
2015-Jun-27 09:28N 47°17' W 002°10'1 1.1
2015-Jun-27 08:19N 47°18' W 002°09'0 0.3
2015-Jun-27 07:11N 47°18' W 002°08'2 3.5
2015-Jun-27 06:33N 47°18' W 002°05'0 0.0
2015-Jun-27 05:33N 47°18' W 002°05'0 0.0
2015-Jun-27 04:33N 47°18' W 002°05'0 0.0
2015-Jun-26 23:21N 47°18' W 002°05'5 1.8
2015-Jun-26 20:26N 47°16' W 002°12'0 0.0
2015-Jun-26 19:26N 47°16' W 002°12'4 4.6
2015-Jun-26 18:33N 47°18' W 002°07'4 4.1
2015-Jun-26 17:33N 47°16' W 002°12'0 0.1
2015-Jun-26 16:33N 47°16' W 002°12'0 0.0
2015-Jun-26 15:24N 47°16' W 002°12'0 0.0
2015-Jun-26 14:27N 47°16' W 002°12'0 0.0
2015-Jun-26 13:15N 47°16' W 002°12'0 0.0
2015-Jun-26 12:24N 47°16' W 002°12'0 0.0
2015-Jun-26 10:33N 47°16' W 002°12'0 0.0
2015-Jun-26 09:33N 47°16' W 002°12'0 0.0
2015-Jun-26 08:33N 47°16' W 002°12'0 0.0
2015-Jun-26 07:33N 47°16' W 002°12'0 0.0
2015-Jun-26 06:33N 47°16' W 002°12'0 0.0
2015-Jun-26 05:33N 47°16' W 002°12'0 0.0
2015-Jun-26 04:30N 47°16' W 002°12'0 0.0
2015-Jun-26 03:33N 47°16' W 002°12'0 0.0
2015-Jun-26 02:27N 47°16' W 002°12'0 0.0
2015-Jun-26 01:18N 47°16' W 002°12'0 0.0
2015-Jun-26 00:33N 47°16' W 002°12'0 0.0
2015-Jun-25 23:24N 47°16' W 002°12'0 0.0
2015-Jun-25 22:33N 47°16' W 002°12'0 0.0
2015-Jun-25 21:21N 47°16' W 002°12'0 0.0
2015-Jun-25 20:09N 47°16' W 002°12'0 0.0
2015-Jun-25 19:06N 47°16' W 002°12'0 0.0
2015-Jun-25 09:32N 47°16' W 002°12'0 0.0
2015-Jun-25 08:06N 47°16' W 002°12'0 0.0
2015-Jun-25 07:30N 47°16' W 002°12'3 3.1
2015-Jun-25 06:33N 47°18' W 002°09'0 0.0
2015-Jun-25 05:33N 47°18' W 002°09'0 0.0
2015-Jun-25 04:33N 47°18' W 002°09'0 0.0
2015-Jun-25 03:33N 47°18' W 002°09'0 0.0
2015-Jun-25 02:27N 47°18' W 002°09'0 0.0
2015-Jun-25 01:24N 47°18' W 002°09'0 0.0
2015-Jun-25 00:30N 47°18' W 002°09'0 0.0
2015-Jun-24 23:33N 47°18' W 002°09'0 0.0
2015-Jun-24 22:30N 47°18' W 002°09'0 0.0
2015-Jun-24 21:33N 47°18' W 002°09'0 0.0
2015-Jun-24 20:21N 47°18' W 002°09'0 0.0
2015-Jun-24 07:33N 47°18' W 002°09'3 2.2
2015-Jun-24 06:14N 47°16' W 002°12'0 0.0
2015-Jun-24 05:32N 47°16' W 002°12'1 0.1
2015-Jun-23 20:11N 47°17' W 002°11'1 0.0
2015-Jun-22 05:20N 47°16' W 002°12'0 0.0
2015-Jun-22 03:08N 47°16' W 002°12'0 0.0
2015-Jun-22 02:32N 47°16' W 002°12'  
Track history (hours):
 
Tides and Currents Weather Stations Pressure Air Temp Water Temp Dewpoint Dewpoint Depression Visibility Wind Speed Wind Dir Waves Ship Positions

Abeille Honfleur 19

Last reported at 2015-Jul-02 02:31 UTC. Time now 2015-Jul-02 18:14 UTC.
Position N 47°18' W 002°09'.

Length 30 m.

Type: Tug. MMSI: 227005280.

Date/timePositionNaut miles runAvg speedWind from/ knotsBaromVisibWave heightAir tempDewpointWater temp
2015-Jul-02 02:31N 47°18' W 002°09'3 2.6
2015-Jul-02 01:33N 47°16' W 002°12'0 0.0
2015-Jul-02 00:27N 47°16' W 002°12'0 0.0
2015-Jul-01 23:30N 47°16' W 002°12'0 0.0
2015-Jul-01 22:33N 47°16' W 002°12'0 0.0
2015-Jul-01 19:24N 47°16' W 002°12'0 0.0
2015-Jul-01 17:33N 47°16' W 002°12'0 0.0
2015-Jul-01 16:06N 47°16' W 002°12'0 0.0
2015-Jul-01 13:30N 47°16' W 002°12'0 0.0
2015-Jul-01 06:12N 47°16' W 002°12'0 0.0
2015-Jul-01 05:30N 47°16' W 002°12'0 0.0
2015-Jul-01 04:33N 47°16' W 002°12'0 0.0
2015-Jul-01 03:33N 47°16' W 002°12'0 0.0
2015-Jul-01 01:32N 47°16' W 002°12'0 0.0
2015-Jul-01 00:09N 47°16' W 002°12'0 0.0
2015-Jun-30 23:32N 47°16' W 002°12'0 0.0
2015-Jun-30 22:27N 47°16' W 002°12'0 0.0
2015-Jun-30 20:06N 47°16' W 002°12'0 0.0
2015-Jun-30 07:14N 47°16' W 002°12'3 4.1
2015-Jun-30 06:33N 47°18' W 002°09'0 0.0
2015-Jun-30 05:30N 47°18' W 002°09'0 0.0
2015-Jun-30 04:33N 47°18' W 002°09'0 0.0
2015-Jun-30 03:33N 47°18' W 002°09'0 0.0
2015-Jun-30 02:33N 47°18' W 002°09'0 0.0
2015-Jun-30 01:33N 47°18' W 002°09'0 0.0
2015-Jun-30 00:24N 47°18' W 002°09'0 0.0
2015-Jun-29 23:33N 47°18' W 002°09'0 0.0
2015-Jun-29 22:27N 47°18' W 002°09'0 0.0
2015-Jun-29 21:27N 47°18' W 002°09'0 0.0
2015-Jun-29 20:33N 47°18' W 002°09'0 0.0
2015-Jun-29 19:30N 47°18' W 002°09'0 0.0
2015-Jun-29 18:27N 47°18' W 002°09'0 0.0
2015-Jun-29 13:27N 47°18' W 002°09'0 0.0
2015-Jun-29 12:27N 47°18' W 002°09'0 0.0
2015-Jun-29 11:33N 47°18' W 002°09'0 0.0
2015-Jun-29 10:33N 47°18' W 002°09'0 0.0
2015-Jun-29 09:33N 47°18' W 002°09'0 0.0
2015-Jun-29 08:33N 47°18' W 002°09'0 0.0
2015-Jun-29 07:30N 47°18' W 002°09'3 2.6
2015-Jun-29 06:25N 47°16' W 002°12'0 0.0
2015-Jun-29 05:31N 47°16' W 002°12'0 0.0
2015-Jun-29 04:31N 47°16' W 002°12'0 0.0
2015-Jun-29 03:25N 47°16' W 002°12'0 0.0
2015-Jun-29 02:25N 47°16' W 002°12'0 0.0
2015-Jun-29 01:31N 47°16' W 002°12'0 0.0
2015-Jun-29 00:13N 47°16' W 002°12'0 0.0
2015-Jun-28 23:19N 47°16' W 002°12'0 0.0
2015-Jun-28 22:19N 47°16' W 002°12'0 0.0
2015-Jun-28 21:19N 47°16' W 002°12'0 0.0
2015-Jun-28 09:28N 47°16' W 002°12'0 0.0
2015-Jun-28 08:22N 47°16' W 002°12'0 0.0
2015-Jun-28 07:22N 47°16' W 002°12'0 0.0
2015-Jun-28 06:22N 47°16' W 002°12'0 0.0
2015-Jun-28 05:31N 47°16' W 002°12'0 0.0
2015-Jun-28 04:31N 47°16' W 002°12'0 0.0
2015-Jun-28 03:25N 47°16' W 002°12'0 0.0
2015-Jun-28 02:31N 47°16' W 002°12'0 0.0
2015-Jun-28 01:31N 47°16' W 002°12'0 0.0
2015-Jun-28 00:31N 47°16' W 002°12'0 0.0
2015-Jun-27 23:31N 47°16' W 002°12'0 0.0
2015-Jun-27 22:31N 47°16' W 002°12'0 0.0
2015-Jun-27 21:25N 47°16' W 002°12'0 0.0
2015-Jun-27 20:28N 47°16' W 002°12'0 0.0
2015-Jun-27 19:16N 47°16' W 002°12'1 0.1
2015-Jun-27 09:28N 47°17' W 002°10'1 1.1
2015-Jun-27 08:19N 47°18' W 002°09'0 0.3
2015-Jun-27 07:11N 47°18' W 002°08'2 3.5
2015-Jun-27 06:33N 47°18' W 002°05'0 0.0
2015-Jun-27 05:33N 47°18' W 002°05'0 0.0
2015-Jun-27 04:33N 47°18' W 002°05'0 0.0
2015-Jun-26 23:21N 47°18' W 002°05'5 1.8
2015-Jun-26 20:26N 47°16' W 002°12'0 0.0
2015-Jun-26 19:26N 47°16' W 002°12'4 4.6
2015-Jun-26 18:33N 47°18' W 002°07'4 4.1
2015-Jun-26 17:33N 47°16' W 002°12'0 0.1
2015-Jun-26 16:33N 47°16' W 002°12'0 0.0
2015-Jun-26 15:24N 47°16' W 002°12'0 0.0
2015-Jun-26 14:27N 47°16' W 002°12'0 0.0
2015-Jun-26 13:15N 47°16' W 002°12'0 0.0
2015-Jun-26 12:24N 47°16' W 002°12'0 0.0
2015-Jun-26 10:33N 47°16' W 002°12'0 0.0
2015-Jun-26 09:33N 47°16' W 002°12'0 0.0
2015-Jun-26 08:33N 47°16' W 002°12'0 0.0
2015-Jun-26 07:33N 47°16' W 002°12'0 0.0
2015-Jun-26 06:33N 47°16' W 002°12'0 0.0
2015-Jun-26 05:33N 47°16' W 002°12'0 0.0
2015-Jun-26 04:30N 47°16' W 002°12'0 0.0
2015-Jun-26 03:33N 47°16' W 002°12'0 0.0
2015-Jun-26 02:27N 47°16' W 002°12'0 0.0
2015-Jun-26 01:18N 47°16' W 002°12'0 0.0
2015-Jun-26 00:33N 47°16' W 002°12'0 0.0
2015-Jun-25 23:24N 47°16' W 002°12'0 0.0
2015-Jun-25 22:33N 47°16' W 002°12'0 0.0
2015-Jun-25 21:21N 47°16' W 002°12'0 0.0
2015-Jun-25 20:09N 47°16' W 002°12'0 0.0
2015-Jun-25 19:06N 47°16' W 002°12'0 0.0
2015-Jun-25 09:32N 47°16' W 002°12'0 0.0
2015-Jun-25 08:06N 47°16' W 002°12'0 0.0
2015-Jun-25 07:30N 47°16' W 002°12'3 3.1
2015-Jun-25 06:33N 47°18' W 002°09'0 0.0
2015-Jun-25 05:33N 47°18' W 002°09'0 0.0
2015-Jun-25 04:33N 47°18' W 002°09'0 0.0
2015-Jun-25 03:33N 47°18' W 002°09'0 0.0
2015-Jun-25 02:27N 47°18' W 002°09'0 0.0
2015-Jun-25 01:24N 47°18' W 002°09'0 0.0
2015-Jun-25 00:30N 47°18' W 002°09'0 0.0
2015-Jun-24 23:33N 47°18' W 002°09'0 0.0
2015-Jun-24 22:30N 47°18' W 002°09'0 0.0
2015-Jun-24 21:33N 47°18' W 002°09'0 0.0
2015-Jun-24 20:21N 47°18' W 002°09'0 0.0
2015-Jun-24 07:33N 47°18' W 002°09'3 2.2
2015-Jun-24 06:14N 47°16' W 002°12'0 0.0
2015-Jun-24 05:32N 47°16' W 002°12'1 0.1
2015-Jun-23 20:11N 47°17' W 002°11'1 0.0
2015-Jun-22 05:20N 47°16' W 002°12'0 0.0
2015-Jun-22 03:08N 47°16' W 002°12'0 0.0
2015-Jun-22 02:32N 47°16' W 002°12'  

Dump ship's entire track history